createdAt,value
2022-09-21T00:01:22.314Z,8.40
2022-09-21T00:03:56.598Z,8.60
2022-09-21T00:06:25.723Z,8.70
2022-09-21T00:08:53.213Z,8.60
2022-09-21T00:11:24.831Z,8.60
2022-09-21T00:14:01.074Z,8.60
2022-09-21T00:16:28.895Z,8.60
2022-09-21T00:18:55.723Z,8.50
2022-09-21T00:21:23.168Z,8.50
2022-09-21T00:23:50.022Z,8.50
2022-09-21T00:26:22.750Z,8.60
2022-09-21T00:28:57.465Z,8.60
2022-09-21T00:31:24.630Z,8.70
2022-09-21T00:33:51.769Z,8.60
2022-09-21T00:36:20.332Z,8.50
2022-09-21T00:38:51.885Z,8.50
2022-09-21T00:41:19.273Z,8.40
2022-09-21T00:44:10.097Z,8.40
2022-09-21T00:46:39.139Z,8.30
2022-09-21T00:49:06.431Z,8.40
2022-09-21T00:51:33.328Z,8.30
2022-09-21T00:54:06.869Z,8.30
2022-09-21T00:56:34.896Z,8.30
2022-09-21T00:59:02.695Z,8.30
2022-09-21T01:01:30.973Z,8.30
2022-09-21T01:03:57.812Z,8.30
2022-09-21T01:06:25.967Z,8.40
2022-09-21T01:08:55.895Z,8.50
2022-09-21T01:11:34.861Z,8.50
2022-09-21T01:14:30.149Z,8.50
2022-09-21T01:17:17.679Z,8.50
2022-09-21T01:20:35.962Z,8.60
2022-09-21T01:23:53.299Z,8.50
2022-09-21T01:26:38.934Z,8.50
2022-09-21T01:29:28.600Z,8.50
2022-09-21T01:32:11.403Z,8.40
2022-09-21T01:35:06.826Z,8.40
2022-09-21T01:37:44.057Z,8.40
2022-09-21T01:40:20.258Z,8.40
2022-09-21T01:42:49.985Z,8.40
2022-09-21T01:45:19.173Z,8.40
2022-09-21T01:47:49.218Z,8.30
2022-09-21T01:50:18.619Z,8.30
2022-09-21T01:52:54.717Z,8.30
2022-09-21T01:55:28.492Z,8.30
2022-09-21T01:57:59.691Z,8.30
2022-09-21T02:00:26.989Z,8.20
2022-09-21T02:03:09.889Z,8.30
2022-09-21T02:05:37.702Z,8.30
2022-09-21T02:08:07.384Z,8.30
2022-09-21T02:10:40.073Z,8.20
2022-09-21T02:13:08.174Z,8.20
2022-09-21T02:15:41.020Z,8.20
2022-09-21T02:18:23.032Z,8.20
2022-09-21T02:20:54.483Z,8.20
2022-09-21T02:23:28.959Z,8.20
2022-09-21T02:26:07.461Z,8.20
2022-09-21T02:29:07.520Z,8.20
2022-09-21T02:31:47.588Z,8.10
2022-09-21T02:34:21.002Z,8.10
2022-09-21T02:36:56.997Z,8.10
2022-09-21T02:39:40.860Z,8.10
2022-09-21T02:42:13.021Z,8.00
2022-09-21T02:44:47.947Z,8.00
2022-09-21T02:47:27.296Z,8.00
2022-09-21T02:50:01.576Z,8.00
2022-09-21T02:52:30.129Z,8.00
2022-09-21T02:54:58.594Z,8.00
2022-09-21T02:57:26.561Z,8.10
2022-09-21T02:59:53.514Z,8.10
2022-09-21T03:02:20.511Z,8.00
2022-09-21T03:04:48.645Z,8.00
2022-09-21T03:07:16.827Z,7.90
2022-09-21T03:09:43.999Z,8.00
2022-09-21T03:12:11.062Z,7.90
2022-09-21T03:14:38.045Z,7.90
2022-09-21T03:17:04.966Z,7.80
2022-09-21T03:19:31.736Z,7.80
2022-09-21T03:21:58.672Z,7.70
2022-09-21T03:24:43.984Z,7.60
2022-09-21T03:27:10.957Z,7.70
2022-09-21T03:29:37.699Z,7.70
2022-09-21T03:32:04.629Z,7.60
2022-09-21T03:34:34.265Z,7.60
2022-09-21T03:37:02.598Z,7.60
2022-09-21T03:39:29.797Z,7.70
2022-09-21T03:41:56.901Z,7.60
2022-09-21T03:44:27.626Z,7.70
2022-09-21T03:46:54.706Z,7.70
2022-09-21T03:49:21.618Z,7.70
2022-09-21T03:51:49.043Z,7.60
2022-09-21T03:54:15.961Z,7.60
2022-09-21T03:56:42.868Z,7.50
2022-09-21T03:59:13.889Z,7.60
2022-09-21T04:01:41.640Z,7.50
2022-09-21T04:04:08.787Z,7.60
2022-09-21T04:06:35.836Z,7.70
2022-09-21T04:09:03.733Z,7.80
2022-09-21T04:11:32.503Z,7.70
2022-09-21T04:14:00.116Z,7.60
2022-09-21T04:16:28.392Z,7.50
2022-09-21T04:18:55.716Z,7.50
2022-09-21T04:21:22.898Z,7.50
2022-09-21T04:23:50.620Z,7.50
2022-09-21T04:26:24.800Z,7.50
2022-09-21T04:28:52.259Z,7.40
2022-09-21T04:31:19.932Z,7.40
2022-09-21T04:33:54.583Z,7.40
2022-09-21T04:36:22.945Z,7.60
2022-09-21T04:38:50.547Z,7.40
2022-09-21T04:41:18.020Z,7.20
2022-09-21T04:43:46.528Z,7.20
2022-09-21T04:46:16.253Z,7.20
2022-09-21T04:48:43.856Z,7.30
2022-09-21T04:51:11.973Z,7.30
2022-09-21T04:53:40.969Z,7.30
2022-09-21T04:56:09.695Z,7.40
2022-09-21T04:58:36.846Z,7.60
2022-09-21T05:01:06.244Z,7.40
2022-09-21T05:03:33.514Z,6.90
2022-09-21T05:06:00.432Z,7.40
2022-09-21T05:08:46.903Z,7.30
2022-09-21T05:11:19.137Z,7.50
2022-09-21T05:13:46.366Z,7.40
2022-09-21T05:16:13.608Z,7.40
2022-09-21T05:18:40.831Z,7.40
2022-09-21T05:21:07.591Z,7.50
2022-09-21T05:23:34.546Z,7.50
2022-09-21T05:26:01.374Z,7.60
2022-09-21T05:28:28.575Z,7.50
2022-09-21T05:31:17.119Z,7.50
2022-09-21T05:33:59.068Z,7.50
2022-09-21T05:36:50.638Z,7.50
2022-09-21T05:39:17.649Z,7.50
2022-09-21T05:41:44.633Z,7.50
2022-09-21T05:44:15.599Z,7.50
2022-09-21T05:46:56.275Z,7.60
2022-09-21T05:49:52.807Z,7.70
2022-09-21T05:52:34.848Z,7.80
2022-09-21T05:55:16.490Z,7.90
2022-09-21T05:58:22.036Z,8.10
2022-09-21T06:01:28.268Z,8.20
2022-09-21T06:03:56.850Z,8.30
2022-09-21T06:06:23.566Z,8.30
2022-09-21T06:08:50.406Z,8.20
2022-09-21T06:11:17.295Z,8.30
2022-09-21T06:13:44.084Z,8.30
2022-09-21T06:16:10.975Z,8.40
2022-09-21T06:18:42.265Z,8.50
2022-09-21T06:21:09.487Z,9.40
2022-09-21T06:23:36.540Z,12.80
2022-09-21T06:26:03.662Z,14.60
2022-09-21T06:28:30.600Z,14.90
2022-09-21T06:30:58.202Z,16.10
2022-09-21T06:33:25.750Z,16.80
2022-09-21T06:35:57.675Z,15.30
2022-09-21T06:38:25.836Z,13.80
2022-09-21T06:40:53.286Z,12.50
2022-09-21T06:43:20.394Z,11.90
2022-09-21T06:45:55.449Z,11.20
2022-09-21T06:48:22.490Z,10.70
2022-09-21T06:50:49.406Z,10.60
2022-09-21T06:53:18.076Z,10.60
2022-09-21T06:55:44.848Z,10.60
2022-09-21T06:58:11.692Z,10.50
2022-09-21T07:00:38.488Z,10.40
2022-09-21T07:03:05.688Z,10.40
2022-09-21T07:05:34.129Z,10.40
2022-09-21T07:08:01.209Z,10.50
2022-09-21T07:10:28.555Z,10.50
2022-09-21T07:12:55.620Z,10.70
2022-09-21T07:15:22.969Z,10.80
2022-09-21T07:17:52.247Z,10.90
2022-09-21T07:20:19.894Z,11.00
2022-09-21T07:22:47.059Z,11.10
2022-09-21T07:25:14.550Z,11.20
2022-09-21T07:27:41.413Z,11.40
2022-09-21T07:30:09.179Z,11.40
2022-09-21T07:32:36.538Z,11.40
2022-09-21T07:35:03.467Z,11.50
2022-09-21T07:37:31.949Z,11.60
2022-09-21T07:39:59.008Z,11.70
2022-09-21T07:42:28.209Z,11.70
2022-09-21T07:45:03.930Z,11.60
2022-09-21T07:47:31.546Z,11.60
2022-09-21T07:49:58.400Z,11.70
2022-09-21T07:52:25.256Z,11.60
2022-09-21T07:54:52.049Z,11.60
2022-09-21T07:57:37.635Z,11.70
2022-09-21T08:00:05.224Z,11.90
2022-09-21T08:02:32.169Z,11.90
2022-09-21T08:04:59.091Z,12.00
2022-09-21T08:07:26.636Z,12.10
2022-09-21T08:09:53.590Z,12.20
2022-09-21T08:12:20.780Z,12.20
2022-09-21T08:14:48.188Z,12.20
2022-09-21T08:17:15.035Z,12.20
2022-09-21T08:19:41.882Z,12.30
2022-09-21T08:22:08.726Z,12.40
2022-09-21T08:24:35.859Z,12.40
2022-09-21T08:27:02.756Z,12.40
2022-09-21T08:29:30.302Z,12.50
2022-09-21T08:31:58.083Z,12.60
2022-09-21T08:34:26.338Z,12.70
2022-09-21T08:36:55.713Z,12.70
2022-09-21T08:39:23.931Z,12.80
2022-09-21T08:41:53.646Z,12.90
2022-09-21T08:44:29.754Z,13.10
2022-09-21T08:47:06.220Z,13.20
2022-09-21T08:49:36.392Z,13.20
2022-09-21T08:52:14.261Z,13.40
2022-09-21T08:55:05.298Z,13.50
2022-09-21T08:57:34.359Z,13.50
2022-09-21T09:00:02.626Z,13.70
2022-09-21T09:02:29.730Z,13.60
2022-09-21T09:05:31.443Z,13.80
2022-09-21T09:08:58.639Z,13.70
2022-09-21T09:11:34.591Z,13.70
2022-09-21T09:14:32.199Z,13.80
2022-09-21T09:17:04.963Z,14.00
2022-09-21T09:19:51.818Z,14.00
2022-09-21T09:22:27.541Z,14.00
2022-09-21T09:25:02.766Z,14.10
2022-09-21T09:27:39.311Z,14.00
2022-09-21T09:30:20.253Z,14.20
2022-09-21T09:32:53.406Z,14.20
2022-09-21T09:35:36.577Z,14.40
2022-09-21T09:38:28.180Z,14.60
2022-09-21T09:41:35.632Z,14.60
2022-09-21T09:44:27.710Z,14.70
2022-09-21T09:47:09.289Z,14.80
2022-09-21T09:49:51.703Z,14.70
2022-09-21T09:52:18.637Z,14.50
2022-09-21T09:54:45.459Z,14.60
2022-09-21T09:57:13.554Z,14.90
2022-09-21T09:59:53.510Z,15.10
2022-09-21T10:02:26.788Z,15.20
2022-09-21T10:05:06.094Z,15.20
2022-09-21T10:07:46.037Z,15.00
2022-09-21T10:10:23.500Z,15.00
2022-09-21T10:12:52.077Z,15.20
2022-09-21T10:15:20.624Z,15.20
2022-09-21T10:17:48.264Z,15.30
2022-09-21T10:20:20.420Z,15.30
2022-09-21T10:22:55.301Z,15.40
2022-09-21T10:25:22.239Z,15.50
2022-09-21T10:27:51.923Z,15.50
2022-09-21T10:30:31.071Z,15.40
2022-09-21T10:32:59.194Z,15.80
2022-09-21T10:35:27.399Z,15.60
2022-09-21T10:38:21.967Z,15.70
2022-09-21T10:40:50.177Z,15.90
2022-09-21T10:43:31.844Z,15.70
2022-09-21T10:46:01.663Z,15.60
2022-09-21T10:48:29.532Z,15.50
2022-09-21T10:50:57.250Z,16.00
2022-09-21T10:53:32.817Z,16.20
2022-09-21T10:56:19.354Z,16.10
2022-09-21T10:59:23.551Z,15.90
2022-09-21T11:01:53.422Z,16.20
2022-09-21T11:04:42.527Z,16.30
2022-09-21T11:07:28.902Z,16.20
2022-09-21T11:10:20.039Z,16.10
2022-09-21T11:13:07.571Z,16.10
2022-09-21T11:15:49.107Z,16.20
2022-09-21T11:18:38.676Z,16.30
2022-09-21T11:21:27.670Z,16.30
2022-09-21T11:24:22.753Z,16.30
2022-09-21T11:27:03.954Z,16.20
2022-09-21T11:29:54.704Z,16.40
2022-09-21T11:32:46.372Z,16.70
2022-09-21T11:35:19.138Z,16.70
2022-09-21T11:38:22.457Z,16.60
2022-09-21T11:41:31.795Z,16.40
2022-09-21T11:44:27.520Z,16.30
2022-09-21T11:47:32.356Z,16.20
2022-09-21T11:50:29.311Z,16.30
2022-09-21T11:53:14.317Z,16.50
2022-09-21T11:55:57.673Z,16.00
2022-09-21T11:58:53.102Z,15.70
2022-09-21T12:01:37.662Z,15.80
2022-09-21T12:04:11.067Z,15.80
2022-09-21T12:07:05.876Z,16.00
2022-09-21T12:09:39.930Z,16.00
2022-09-21T12:12:25.059Z,16.10
2022-09-21T12:14:59.829Z,16.10
2022-09-21T12:17:29.727Z,16.20
2022-09-21T12:20:20.720Z,16.30
2022-09-21T12:22:51.439Z,16.20
2022-09-21T12:25:21.282Z,16.20
2022-09-21T12:28:19.032Z,16.30
2022-09-21T12:30:51.225Z,16.30
2022-09-21T12:33:33.636Z,16.10
2022-09-21T12:36:35.966Z,16.00
2022-09-21T12:39:29.388Z,16.00
2022-09-21T12:42:11.992Z,16.10
2022-09-21T12:44:52.278Z,16.10
2022-09-21T12:47:47.485Z,16.20
2022-09-21T12:50:34.216Z,16.10
2022-09-21T12:53:01.802Z,16.20
2022-09-21T12:55:45.525Z,16.10
2022-09-21T12:58:21.591Z,16.00
2022-09-21T13:01:20.709Z,16.00
2022-09-21T13:03:53.454Z,16.10
2022-09-21T13:06:50.629Z,16.00
2022-09-21T13:09:20.573Z,16.10
2022-09-21T13:12:10.219Z,16.30
2022-09-21T13:14:52.022Z,16.20
2022-09-21T13:17:31.204Z,16.00
2022-09-21T13:20:03.561Z,16.00
2022-09-21T13:22:35.688Z,16.00
2022-09-21T13:25:28.200Z,15.80
2022-09-21T13:28:13.620Z,15.80
2022-09-21T13:30:44.996Z,15.80
2022-09-21T13:33:20.761Z,15.80
2022-09-21T13:35:50.851Z,15.80
2022-09-21T13:38:26.732Z,15.70
2022-09-21T13:41:00.342Z,15.70
2022-09-21T13:43:47.135Z,15.60
2022-09-21T13:46:35.589Z,15.70
2022-09-21T13:49:11.482Z,15.70
2022-09-21T13:52:02.166Z,15.70
2022-09-21T13:54:38.402Z,15.70
2022-09-21T13:57:14.581Z,15.70
2022-09-21T13:59:43.686Z,15.80
2022-09-21T14:02:32.641Z,15.80
2022-09-21T14:05:23.451Z,15.90
2022-09-21T14:08:03.075Z,16.00
2022-09-21T14:10:32.657Z,16.00
2022-09-21T14:13:02.085Z,16.10
2022-09-21T14:15:35.864Z,16.10
2022-09-21T14:18:12.340Z,16.20
2022-09-21T14:20:39.807Z,16.40
2022-09-21T14:23:16.430Z,16.30
2022-09-21T14:25:55.894Z,16.20
2022-09-21T14:28:35.470Z,16.20
2022-09-21T14:31:08.590Z,16.30
2022-09-21T14:33:49.367Z,16.40
2022-09-21T14:36:22.344Z,16.40
2022-09-21T14:39:00.860Z,16.40
2022-09-21T14:41:37.319Z,16.40
2022-09-21T14:44:04.702Z,16.40
2022-09-21T14:46:54.369Z,16.40
2022-09-21T14:49:40.825Z,16.30
2022-09-21T14:52:32.688Z,16.30
2022-09-21T14:55:21.141Z,16.30
2022-09-21T14:58:07.948Z,16.30
2022-09-21T15:00:39.904Z,16.30
2022-09-21T15:03:39.153Z,16.40
2022-09-21T15:06:40.775Z,16.50
2022-09-21T15:09:51.146Z,16.60
2022-09-21T15:12:23.612Z,16.40
2022-09-21T15:15:05.550Z,16.50
2022-09-21T15:17:32.476Z,16.20
2022-09-21T15:20:03.659Z,16.20
2022-09-21T15:22:32.076Z,16.30
2022-09-21T15:25:04.217Z,16.40
2022-09-21T15:27:33.515Z,16.30
2022-09-21T15:30:03.967Z,16.30
2022-09-21T15:32:38.052Z,16.50
2022-09-21T15:35:16.112Z,16.50
2022-09-21T15:37:43.365Z,16.50
2022-09-21T15:40:19.120Z,16.30
2022-09-21T15:43:16.963Z,16.20
2022-09-21T15:46:00.801Z,16.20
2022-09-21T15:48:42.276Z,16.20
2022-09-21T15:51:28.631Z,16.20
2022-09-21T15:54:21.191Z,16.30
2022-09-21T15:56:48.259Z,16.30
2022-09-21T15:59:21.100Z,16.30
2022-09-21T16:01:53.130Z,16.30
2022-09-21T16:04:25.517Z,16.30
2022-09-21T16:07:02.817Z,16.20
2022-09-21T16:09:42.960Z,16.30
2022-09-21T16:12:28.625Z,16.20
2022-09-21T16:15:08.224Z,16.20
2022-09-21T16:17:38.964Z,16.10
2022-09-21T16:20:37.221Z,16.00
2022-09-21T16:23:16.185Z,16.00
2022-09-21T16:25:43.597Z,15.90
2022-09-21T16:28:16.452Z,15.90
2022-09-21T16:30:51.166Z,15.80
2022-09-21T16:34:00.487Z,15.70
2022-09-21T16:36:32.376Z,15.60
2022-09-21T16:39:06.456Z,15.50
2022-09-21T16:41:42.345Z,15.50
2022-09-21T16:44:20.980Z,15.40
2022-09-21T16:46:59.469Z,15.30
2022-09-21T16:49:35.677Z,15.40
2022-09-21T16:52:03.116Z,15.30
2022-09-21T16:54:30.401Z,15.20
2022-09-21T16:57:00.171Z,15.10
2022-09-21T16:59:27.713Z,15.00
2022-09-21T17:01:57.069Z,14.90
2022-09-21T17:04:32.062Z,14.70
2022-09-21T17:06:58.904Z,14.60
2022-09-21T17:09:29.493Z,14.80
2022-09-21T17:12:00.198Z,14.50
2022-09-21T17:14:29.526Z,14.30
2022-09-21T17:16:58.642Z,14.10
2022-09-21T17:19:25.450Z,14.10
2022-09-21T17:21:52.318Z,14.00
2022-09-21T17:24:38.824Z,13.90
2022-09-21T17:27:05.942Z,13.80
2022-09-21T17:29:37.132Z,13.70
2022-09-21T17:32:10.276Z,13.60
2022-09-21T17:34:37.237Z,13.50
2022-09-21T17:37:04.162Z,13.40
2022-09-21T17:39:31.169Z,13.40
2022-09-21T17:42:13.782Z,13.40
2022-09-21T17:45:13.030Z,13.40
2022-09-21T17:47:41.141Z,13.30
2022-09-21T17:50:13.930Z,13.20
2022-09-21T17:53:00.884Z,13.10
2022-09-21T17:55:28.503Z,12.80
2022-09-21T17:58:07.491Z,12.50
2022-09-21T18:00:53.526Z,12.50
2022-09-21T18:03:23.544Z,12.30
2022-09-21T18:05:55.831Z,12.30
2022-09-21T18:08:23.310Z,12.30
2022-09-21T18:11:27.298Z,12.20
2022-09-21T18:13:59.497Z,12.00
2022-09-21T18:16:30.884Z,11.90
2022-09-21T18:19:36.551Z,11.90
2022-09-21T18:22:31.546Z,11.90
2022-09-21T18:24:58.574Z,11.70
2022-09-21T18:27:25.707Z,11.70
2022-09-21T18:29:52.775Z,11.50
2022-09-21T18:32:25.771Z,11.40
2022-09-21T18:35:04.047Z,11.40
2022-09-21T18:37:56.158Z,11.30
2022-09-21T18:40:43.471Z,11.30
2022-09-21T18:43:28.814Z,11.20
2022-09-21T18:46:03.635Z,11.10
2022-09-21T18:49:07.423Z,11.00
2022-09-21T18:51:42.134Z,10.90
2022-09-21T18:54:18.515Z,10.90
2022-09-21T18:56:45.974Z,10.90
2022-09-21T18:59:14.700Z,10.80
2022-09-21T19:01:49.486Z,10.60
2022-09-21T19:04:20.179Z,10.60
2022-09-21T19:07:11.002Z,10.50
2022-09-21T19:09:45.543Z,10.50
2022-09-21T19:12:34.132Z,10.40
2022-09-21T19:15:17.219Z,10.40
2022-09-21T19:17:47.209Z,10.30
2022-09-21T19:20:55.568Z,10.20
2022-09-21T19:23:50.121Z,10.20
2022-09-21T19:26:49.338Z,10.10
2022-09-21T19:29:44.615Z,10.00
2022-09-21T19:32:18.220Z,10.00
2022-09-21T19:34:45.279Z,10.00
2022-09-21T19:37:12.193Z,10.00
2022-09-21T19:39:39.321Z,9.90
2022-09-21T19:42:30.442Z,9.90
2022-09-21T19:45:32.628Z,9.80
2022-09-21T19:48:04.705Z,9.80
2022-09-21T19:50:46.802Z,9.80
2022-09-21T19:53:32.934Z,9.80
2022-09-21T19:56:20.535Z,9.80
2022-09-21T19:59:06.154Z,9.70
2022-09-21T20:01:38.556Z,9.60
2022-09-21T20:04:06.860Z,9.60
2022-09-21T20:06:44.268Z,9.60
2022-09-21T20:09:42.290Z,9.50
2022-09-21T20:12:28.899Z,9.50
2022-09-21T20:15:04.407Z,9.40
2022-09-21T20:17:48.423Z,9.40
2022-09-21T20:20:27.067Z,9.50
2022-09-21T20:22:55.120Z,9.50
2022-09-21T20:25:35.422Z,9.40
2022-09-21T20:28:03.891Z,9.40
2022-09-21T20:30:34.346Z,9.40
2022-09-21T20:33:14.215Z,9.40
2022-09-21T20:35:42.823Z,9.30
2022-09-21T20:38:10.685Z,9.30
2022-09-21T20:40:39.792Z,9.20
2022-09-21T20:43:08.754Z,9.20
2022-09-21T20:45:39.336Z,9.10
2022-09-21T20:48:15.645Z,9.10
2022-09-21T20:50:44.541Z,9.10
2022-09-21T20:53:11.439Z,9.10
2022-09-21T20:55:38.677Z,9.10
2022-09-21T20:58:06.110Z,9.10
2022-09-21T21:00:33.558Z,9.10
2022-09-21T21:03:00.440Z,9.10
2022-09-21T21:05:30.529Z,9.00
2022-09-21T21:07:57.853Z,9.00
2022-09-21T21:10:25.332Z,9.00
2022-09-21T21:12:52.173Z,8.90
2022-09-21T21:15:18.983Z,8.90
2022-09-21T21:17:47.241Z,9.00
2022-09-21T21:20:16.327Z,8.90
2022-09-21T21:22:44.559Z,8.90
2022-09-21T21:25:11.903Z,8.90
2022-09-21T21:27:38.880Z,9.00
2022-09-21T21:30:07.202Z,9.20
2022-09-21T21:32:34.335Z,9.20
2022-09-21T21:35:01.777Z,9.20
2022-09-21T21:37:29.386Z,9.20
2022-09-21T21:39:57.003Z,9.10
2022-09-21T21:42:24.925Z,9.20
2022-09-21T21:44:52.026Z,9.20
2022-09-21T21:50:06.460Z,9.00
2022-09-21T21:52:34.228Z,9.00
2022-09-21T21:55:02.011Z,8.90
2022-09-21T21:57:29.280Z,8.80
2022-09-21T21:59:56.083Z,8.80
2022-09-21T22:02:23.860Z,8.70
2022-09-21T22:04:50.771Z,8.70
2022-09-21T22:07:17.544Z,8.70
2022-09-21T22:09:44.549Z,8.70
2022-09-21T22:12:12.013Z,8.70
2022-09-21T22:14:38.886Z,8.70
2022-09-21T22:17:05.705Z,8.70
2022-09-21T22:19:33.060Z,8.60
2022-09-21T22:21:59.871Z,8.60
2022-09-21T22:24:26.647Z,8.60
2022-09-21T22:26:53.441Z,8.60
2022-09-21T22:29:20.418Z,8.60
2022-09-21T22:31:49.576Z,8.60
2022-09-21T22:34:17.204Z,8.60
2022-09-21T22:36:44.338Z,8.50
2022-09-21T22:39:12.346Z,8.50
2022-09-21T22:41:41.362Z,8.40
2022-09-21T22:44:10.056Z,8.40
2022-09-21T22:46:37.449Z,8.40
2022-09-21T22:49:04.286Z,8.40
2022-09-21T22:51:31.327Z,8.30
2022-09-21T22:53:58.196Z,8.40
2022-09-21T22:56:30.156Z,8.40
2022-09-21T22:58:59.358Z,8.40
2022-09-21T23:01:30.601Z,8.40
2022-09-21T23:04:00.250Z,8.40
2022-09-21T23:06:29.708Z,8.30
2022-09-21T23:08:59.139Z,8.20
2022-09-21T23:11:27.132Z,8.20
2022-09-21T23:13:55.599Z,8.20
2022-09-21T23:16:23.588Z,8.20
2022-09-21T23:18:50.991Z,8.20
2022-09-21T23:21:19.990Z,8.10
2022-09-21T23:23:47.662Z,8.10
2022-09-21T23:26:17.529Z,8.10
2022-09-21T23:28:46.438Z,8.10
2022-09-21T23:31:15.134Z,8.10
2022-09-21T23:33:47.758Z,8.00
2022-09-21T23:36:16.491Z,8.10
2022-09-21T23:38:44.042Z,8.10
2022-09-21T23:41:16.620Z,8.10
2022-09-21T23:43:44.662Z,8.10
2022-09-21T23:46:14.955Z,8.10
2022-09-21T23:48:43.255Z,8.00
2022-09-21T23:51:11.207Z,8.00
2022-09-21T23:53:38.939Z,8.00
2022-09-21T23:56:07.210Z,8.00
2022-09-21T23:58:34.422Z,7.90
